<?xml version="1.0" encoding="UTF-8" standalone="no" ?>
<gpx xmlns="http://www.topografix.com/GPX/1/1" xmlns:xsi="http://www.w3.org/2001/XMLSchema-instance" xsi:schemaLocation="http://www.topografix.com/GPX/1/1 http://www.topografix.com/GPX/1/1/gpx.xsd" version="1.1" creator="VisuGPX - https://www.visugpx.com">
  <metadata>
    <name>pr1 randonnees desaignes tour des vignes</name>
    <desc><![CDATA[ras rando familiale peut se faire en vtt]]></desc>
  </metadata>
  <trk>
    <name><![CDATA[Tracé 26 oct. 2015 14:48:46]]></name>
    <trkseg>
      <trkpt lat="44.99536" lon="4.51678">
        <ele>425</ele>
        <time>2015-10-26T13:48:46Z</time>
      </trkpt>
      <trkpt lat="44.99542" lon="4.51678">
        <ele>425</ele>
        <time>2015-10-26T13:48:51Z</time>
      </trkpt>
      <trkpt lat="44.99549" lon="4.51679">
        <ele>426</ele>
        <time>2015-10-26T13:48:58Z</time>
      </trkpt>
      <trkpt lat="44.99553" lon="4.51682">
        <ele>426</ele>
        <time>2015-10-26T13:49:01Z</time>
      </trkpt>
      <trkpt lat="44.99561" lon="4.51688">
        <ele>426</ele>
        <time>2015-10-26T13:49:05Z</time>
      </trkpt>
      <trkpt lat="44.99569" lon="4.51689">
        <ele>422</ele>
        <time>2015-10-26T13:49:12Z</time>
      </trkpt>
      <trkpt lat="44.99576" lon="4.5168">
        <ele>420</ele>
        <time>2015-10-26T13:49:19Z</time>
      </trkpt>
      <trkpt lat="44.99585" lon="4.51668">
        <ele>419</ele>
        <time>2015-10-26T13:49:24Z</time>
      </trkpt>
      <trkpt lat="44.9959" lon="4.5166">
        <ele>419</ele>
        <time>2015-10-26T13:49:27Z</time>
      </trkpt>
      <trkpt lat="44.99595" lon="4.51656">
        <ele>417</ele>
        <time>2015-10-26T13:49:30Z</time>
      </trkpt>
      <trkpt lat="44.99601" lon="4.51651">
        <ele>413</ele>
        <time>2015-10-26T13:49:41Z</time>
      </trkpt>
      <trkpt lat="44.9961" lon="4.51649">
        <ele>412</ele>
        <time>2015-10-26T13:49:52Z</time>
      </trkpt>
      <trkpt lat="44.99618" lon="4.51648">
        <ele>411</ele>
        <time>2015-10-26T13:49:56Z</time>
      </trkpt>
      <trkpt lat="44.99625" lon="4.51647">
        <ele>411</ele>
        <time>2015-10-26T13:49:59Z</time>
      </trkpt>
      <trkpt lat="44.99633" lon="4.51647">
        <ele>409</ele>
        <time>2015-10-26T13:50:03Z</time>
      </trkpt>
      <trkpt lat="44.99642" lon="4.51649">
        <ele>407</ele>
        <time>2015-10-26T13:50:08Z</time>
      </trkpt>
      <trkpt lat="44.99652" lon="4.51653">
        <ele>403</ele>
        <time>2015-10-26T13:50:13Z</time>
      </trkpt>
      <trkpt lat="44.99658" lon="4.51656">
        <ele>403</ele>
        <time>2015-10-26T13:50:16Z</time>
      </trkpt>
      <trkpt lat="44.99666" lon="4.51662">
        <ele>403</ele>
        <time>2015-10-26T13:50:21Z</time>
      </trkpt>
      <trkpt lat="44.99675" lon="4.51665">
        <ele>403</ele>
        <time>2015-10-26T13:50:33Z</time>
      </trkpt>
      <trkpt lat="44.99682" lon="4.51665">
        <ele>403</ele>
        <time>2015-10-26T13:50:44Z</time>
      </trkpt>
      <trkpt lat="44.9969" lon="4.51666">
        <ele>403</ele>
        <time>2015-10-26T13:50:51Z</time>
      </trkpt>
      <trkpt lat="44.99705" lon="4.51665">
        <ele>403</ele>
        <time>2015-10-26T13:50:56Z</time>
      </trkpt>
      <trkpt lat="44.99713" lon="4.51661">
        <ele>403</ele>
        <time>2015-10-26T13:51:01Z</time>
      </trkpt>
      <trkpt lat="44.99721" lon="4.51658">
        <ele>403</ele>
        <time>2015-10-26T13:51:05Z</time>
      </trkpt>
      <trkpt lat="44.9973" lon="4.51656">
        <ele>403</ele>
        <time>2015-10-26T13:51:10Z</time>
      </trkpt>
      <trkpt lat="44.99737" lon="4.51653">
        <ele>403</ele>
        <time>2015-10-26T13:51:14Z</time>
      </trkpt>
      <trkpt lat="44.99745" lon="4.51647">
        <ele>403</ele>
        <time>2015-10-26T13:51:18Z</time>
      </trkpt>
      <trkpt lat="44.99751" lon="4.51641">
        <ele>403</ele>
        <time>2015-10-26T13:51:22Z</time>
      </trkpt>
      <trkpt lat="44.99757" lon="4.51636">
        <ele>403</ele>
        <time>2015-10-26T13:51:26Z</time>
      </trkpt>
      <trkpt lat="44.99761" lon="4.51631">
        <ele>403</ele>
        <time>2015-10-26T13:51:29Z</time>
      </trkpt>
      <trkpt lat="44.99768" lon="4.51626">
        <ele>403</ele>
        <time>2015-10-26T13:51:34Z</time>
      </trkpt>
      <trkpt lat="44.99773" lon="4.51617">
        <ele>403</ele>
        <time>2015-10-26T13:51:38Z</time>
      </trkpt>
      <trkpt lat="44.99779" lon="4.51613">
        <ele>402</ele>
        <time>2015-10-26T13:51:43Z</time>
      </trkpt>
      <trkpt lat="44.99783" lon="4.51608">
        <ele>402</ele>
        <time>2015-10-26T13:51:47Z</time>
      </trkpt>
      <trkpt lat="44.99792" lon="4.51604">
        <ele>402</ele>
        <time>2015-10-26T13:51:51Z</time>
      </trkpt>
      <trkpt lat="44.99799" lon="4.51599">
        <ele>396</ele>
        <time>2015-10-26T13:52:08Z</time>
      </trkpt>
      <trkpt lat="44.99805" lon="4.51594">
        <ele>395</ele>
        <time>2015-10-26T13:52:14Z</time>
      </trkpt>
      <trkpt lat="44.99813" lon="4.51593">
        <ele>394</ele>
        <time>2015-10-26T13:52:21Z</time>
      </trkpt>
      <trkpt lat="44.9982" lon="4.51594">
        <ele>394</ele>
        <time>2015-10-26T13:52:25Z</time>
      </trkpt>
      <trkpt lat="44.99827" lon="4.51599">
        <ele>394</ele>
        <time>2015-10-26T13:52:29Z</time>
      </trkpt>
      <trkpt lat="44.99835" lon="4.51603">
        <ele>393</ele>
        <time>2015-10-26T13:52:34Z</time>
      </trkpt>
      <trkpt lat="44.99842" lon="4.51608">
        <ele>392</ele>
        <time>2015-10-26T13:52:38Z</time>
      </trkpt>
      <trkpt lat="44.99849" lon="4.51612">
        <ele>392</ele>
        <time>2015-10-26T13:52:42Z</time>
      </trkpt>
      <trkpt lat="44.9986" lon="4.51616">
        <ele>391</ele>
        <time>2015-10-26T13:52:47Z</time>
      </trkpt>
      <trkpt lat="44.99868" lon="4.51621">
        <ele>391</ele>
        <time>2015-10-26T13:52:51Z</time>
      </trkpt>
      <trkpt lat="44.99876" lon="4.51629">
        <ele>392</ele>
        <time>2015-10-26T13:52:56Z</time>
      </trkpt>
      <trkpt lat="44.99883" lon="4.51629">
        <ele>393</ele>
        <time>2015-10-26T13:53:02Z</time>
      </trkpt>
      <trkpt lat="44.99891" lon="4.51634">
        <ele>393</ele>
        <time>2015-10-26T13:53:09Z</time>
      </trkpt>
      <trkpt lat="44.99898" lon="4.51639">
        <ele>393</ele>
        <time>2015-10-26T13:53:16Z</time>
      </trkpt>
      <trkpt lat="44.99905" lon="4.51645">
        <ele>393</ele>
        <time>2015-10-26T13:53:26Z</time>
      </trkpt>
      <trkpt lat="44.99914" lon="4.51647">
        <ele>395</ele>
        <time>2015-10-26T13:53:32Z</time>
      </trkpt>
      <trkpt lat="44.99922" lon="4.51648">
        <ele>396</ele>
        <time>2015-10-26T13:53:37Z</time>
      </trkpt>
      <trkpt lat="44.99928" lon="4.51648">
        <ele>398</ele>
        <time>2015-10-26T13:53:41Z</time>
      </trkpt>
      <trkpt lat="44.99934" lon="4.51646">
        <ele>397</ele>
        <time>2015-10-26T13:53:45Z</time>
      </trkpt>
      <trkpt lat="44.99948" lon="4.51628">
        <ele>397</ele>
        <time>2015-10-26T13:53:50Z</time>
      </trkpt>
      <trkpt lat="44.99956" lon="4.51624">
        <ele>395</ele>
        <time>2015-10-26T13:53:58Z</time>
      </trkpt>
      <trkpt lat="44.99961" lon="4.51615">
        <ele>395</ele>
        <time>2015-10-26T13:54:04Z</time>
      </trkpt>
      <trkpt lat="44.99966" lon="4.51606">
        <ele>395</ele>
        <time>2015-10-26T13:54:10Z</time>
      </trkpt>
      <trkpt lat="44.99968" lon="4.51617">
        <ele>395</ele>
        <time>2015-10-26T13:54:24Z</time>
      </trkpt>
      <trkpt lat="44.99968" lon="4.51626">
        <ele>395</ele>
        <time>2015-10-26T13:54:28Z</time>
      </trkpt>
      <trkpt lat="44.99967" lon="4.51638">
        <ele>395</ele>
        <time>2015-10-26T13:54:34Z</time>
      </trkpt>
      <trkpt lat="44.99973" lon="4.51634">
        <ele>398</ele>
        <time>2015-10-26T13:54:50Z</time>
      </trkpt>
      <trkpt lat="44.99969" lon="4.51644">
        <ele>404</ele>
        <time>2015-10-26T13:55:07Z</time>
      </trkpt>
      <trkpt lat="44.99963" lon="4.51651">
        <ele>406</ele>
        <time>2015-10-26T13:55:12Z</time>
      </trkpt>
      <trkpt lat="44.99958" lon="4.51657">
        <ele>407</ele>
        <time>2015-10-26T13:55:16Z</time>
      </trkpt>
      <trkpt lat="44.99951" lon="4.51663">
        <ele>407</ele>
        <time>2015-10-26T13:55:21Z</time>
      </trkpt>
      <trkpt lat="44.99948" lon="4.51673">
        <ele>410</ele>
        <time>2015-10-26T13:55:31Z</time>
      </trkpt>
      <trkpt lat="44.99943" lon="4.51681">
        <ele>410</ele>
        <time>2015-10-26T13:55:38Z</time>
      </trkpt>
      <trkpt lat="44.99938" lon="4.51687">
        <ele>410</ele>
        <time>2015-10-26T13:55:42Z</time>
      </trkpt>
      <trkpt lat="44.99933" lon="4.51697">
        <ele>410</ele>
        <time>2015-10-26T13:55:47Z</time>
      </trkpt>
      <trkpt lat="44.99928" lon="4.51712">
        <ele>409</ele>
        <time>2015-10-26T13:55:52Z</time>
      </trkpt>
      <trkpt lat="44.99924" lon="4.5172">
        <ele>409</ele>
        <time>2015-10-26T13:55:56Z</time>
      </trkpt>
      <trkpt lat="44.99919" lon="4.51726">
        <ele>410</ele>
        <time>2015-10-26T13:56:00Z</time>
      </trkpt>
      <trkpt lat="44.99913" lon="4.51734">
        <ele>411</ele>
        <time>2015-10-26T13:56:05Z</time>
      </trkpt>
      <trkpt lat="44.99907" lon="4.51743">
        <ele>409</ele>
        <time>2015-10-26T13:56:12Z</time>
      </trkpt>
      <trkpt lat="44.99905" lon="4.51751">
        <ele>408</ele>
        <time>2015-10-26T13:56:20Z</time>
      </trkpt>
      <trkpt lat="44.99899" lon="4.51759">
        <ele>407</ele>
        <time>2015-10-26T13:56:25Z</time>
      </trkpt>
      <trkpt lat="44.99894" lon="4.51765">
        <ele>407</ele>
        <time>2015-10-26T13:56:35Z</time>
      </trkpt>
      <trkpt lat="44.99887" lon="4.51785">
        <ele>405</ele>
        <time>2015-10-26T13:56:40Z</time>
      </trkpt>
      <trkpt lat="44.99883" lon="4.51795">
        <ele>404</ele>
        <time>2015-10-26T13:56:48Z</time>
      </trkpt>
      <trkpt lat="44.99878" lon="4.51801">
        <ele>404</ele>
        <time>2015-10-26T13:56:52Z</time>
      </trkpt>
      <trkpt lat="44.99874" lon="4.51809">
        <ele>403</ele>
        <time>2015-10-26T13:56:56Z</time>
      </trkpt>
      <trkpt lat="44.99871" lon="4.51819">
        <ele>402</ele>
        <time>2015-10-26T13:57:01Z</time>
      </trkpt>
      <trkpt lat="44.99866" lon="4.5183">
        <ele>401</ele>
        <time>2015-10-26T13:57:07Z</time>
      </trkpt>
      <trkpt lat="44.99862" lon="4.51844">
        <ele>401</ele>
        <time>2015-10-26T13:57:12Z</time>
      </trkpt>
      <trkpt lat="44.99858" lon="4.51852">
        <ele>401</ele>
        <time>2015-10-26T13:57:15Z</time>
      </trkpt>
      <trkpt lat="44.99854" lon="4.51859">
        <ele>401</ele>
        <time>2015-10-26T13:57:19Z</time>
      </trkpt>
      <trkpt lat="44.99852" lon="4.51863">
        <ele>402</ele>
        <time>2015-10-26T13:57:20Z</time>
      </trkpt>
      <trkpt lat="44.99845" lon="4.51877">
        <ele>401</ele>
        <time>2015-10-26T13:57:29Z</time>
      </trkpt>
      <trkpt lat="44.99844" lon="4.5188">
        <ele>401</ele>
        <time>2015-10-26T13:57:43Z</time>
      </trkpt>
      <trkpt lat="44.99837" lon="4.51902">
        <ele>401</ele>
        <time>2015-10-26T13:57:47Z</time>
      </trkpt>
      <trkpt lat="44.9983" lon="4.51924">
        <ele>401</ele>
        <time>2015-10-26T13:57:56Z</time>
      </trkpt>
      <trkpt lat="44.99824" lon="4.51938">
        <ele>401</ele>
        <time>2015-10-26T13:58:01Z</time>
      </trkpt>
      <trkpt lat="44.99822" lon="4.51949">
        <ele>402</ele>
        <time>2015-10-26T13:58:05Z</time>
      </trkpt>
      <trkpt lat="44.99818" lon="4.51959">
        <ele>402</ele>
        <time>2015-10-26T13:58:16Z</time>
      </trkpt>
      <trkpt lat="44.99814" lon="4.51969">
        <ele>402</ele>
        <time>2015-10-26T13:58:21Z</time>
      </trkpt>
      <trkpt lat="44.99812" lon="4.51982">
        <ele>402</ele>
        <time>2015-10-26T13:58:26Z</time>
      </trkpt>
      <trkpt lat="44.99809" lon="4.51997">
        <ele>402</ele>
        <time>2015-10-26T13:58:31Z</time>
      </trkpt>
      <trkpt lat="44.99804" lon="4.52002">
        <ele>403</ele>
        <time>2015-10-26T13:58:35Z</time>
      </trkpt>
      <trkpt lat="44.998" lon="4.52013">
        <ele>403</ele>
        <time>2015-10-26T13:58:42Z</time>
      </trkpt>
      <trkpt lat="44.99798" lon="4.52023">
        <ele>403</ele>
        <time>2015-10-26T13:58:48Z</time>
      </trkpt>
      <trkpt lat="44.99796" lon="4.5203">
        <ele>403</ele>
        <time>2015-10-26T13:58:52Z</time>
      </trkpt>
      <trkpt lat="44.99781" lon="4.52035">
        <ele>403</ele>
        <time>2015-10-26T13:58:56Z</time>
      </trkpt>
      <trkpt lat="44.99786" lon="4.52053">
        <ele>403</ele>
        <time>2015-10-26T13:58:59Z</time>
      </trkpt>
      <trkpt lat="44.99787" lon="4.52069">
        <ele>404</ele>
        <time>2015-10-26T13:59:03Z</time>
      </trkpt>
      <trkpt lat="44.99788" lon="4.52081">
        <ele>406</ele>
        <time>2015-10-26T13:59:12Z</time>
      </trkpt>
      <trkpt lat="44.99788" lon="4.5209">
        <ele>406</ele>
        <time>2015-10-26T13:59:18Z</time>
      </trkpt>
      <trkpt lat="44.99786" lon="4.52099">
        <ele>406</ele>
        <time>2015-10-26T13:59:23Z</time>
      </trkpt>
      <trkpt lat="44.99786" lon="4.52109">
        <ele>407</ele>
        <time>2015-10-26T13:59:27Z</time>
      </trkpt>
      <trkpt lat="44.99784" lon="4.5212">
        <ele>408</ele>
        <time>2015-10-26T13:59:35Z</time>
      </trkpt>
      <trkpt lat="44.99784" lon="4.52129">
        <ele>408</ele>
        <time>2015-10-26T13:59:41Z</time>
      </trkpt>
      <trkpt lat="44.99783" lon="4.52139">
        <ele>409</ele>
        <time>2015-10-26T13:59:44Z</time>
      </trkpt>
      <trkpt lat="44.99779" lon="4.52148">
        <ele>409</ele>
        <time>2015-10-26T13:59:50Z</time>
      </trkpt>
      <trkpt lat="44.99778" lon="4.5216">
        <ele>409</ele>
        <time>2015-10-26T13:59:56Z</time>
      </trkpt>
      <trkpt lat="44.99777" lon="4.52172">
        <ele>409</ele>
        <time>2015-10-26T14:00:02Z</time>
      </trkpt>
      <trkpt lat="44.99777" lon="4.52182">
        <ele>408</ele>
        <time>2015-10-26T14:00:06Z</time>
      </trkpt>
      <trkpt lat="44.99775" lon="4.52194">
        <ele>407</ele>
        <time>2015-10-26T14:00:12Z</time>
      </trkpt>
      <trkpt lat="44.99776" lon="4.52209">
        <ele>404</ele>
        <time>2015-10-26T14:00:16Z</time>
      </trkpt>
      <trkpt lat="44.99775" lon="4.52223">
        <ele>404</ele>
        <time>2015-10-26T14:00:20Z</time>
      </trkpt>
      <trkpt lat="44.99776" lon="4.52234">
        <ele>402</ele>
        <time>2015-10-26T14:00:25Z</time>
      </trkpt>
      <trkpt lat="44.99777" lon="4.52241">
        <ele>401</ele>
        <time>2015-10-26T14:00:30Z</time>
      </trkpt>
      <trkpt lat="44.99783" lon="4.52277">
        <ele>397</ele>
        <time>2015-10-26T14:00:47Z</time>
      </trkpt>
      <trkpt lat="44.99784" lon="4.52289">
        <ele>395</ele>
        <time>2015-10-26T14:00:53Z</time>
      </trkpt>
      <trkpt lat="44.99784" lon="4.523">
        <ele>392</ele>
        <time>2015-10-26T14:01:00Z</time>
      </trkpt>
      <trkpt lat="44.99784" lon="4.5231">
        <ele>391</ele>
        <time>2015-10-26T14:01:05Z</time>
      </trkpt>
      <trkpt lat="44.99786" lon="4.52322">
        <ele>390</ele>
        <time>2015-10-26T14:01:09Z</time>
      </trkpt>
      <trkpt lat="44.99788" lon="4.52328">
        <ele>389</ele>
        <time>2015-10-26T14:01:11Z</time>
      </trkpt>
      <trkpt lat="44.99791" lon="4.52334">
        <ele>390</ele>
        <time>2015-10-26T14:01:19Z</time>
      </trkpt>
      <trkpt lat="44.99799" lon="4.52365">
        <ele>389</ele>
        <time>2015-10-26T14:01:23Z</time>
      </trkpt>
      <trkpt lat="44.99803" lon="4.52376">
        <ele>389</ele>
        <time>2015-10-26T14:01:30Z</time>
      </trkpt>
      <trkpt lat="44.99806" lon="4.52387">
        <ele>390</ele>
        <time>2015-10-26T14:01:40Z</time>
      </trkpt>
      <trkpt lat="44.99807" lon="4.52394">
        <ele>391</ele>
        <time>2015-10-26T14:01:44Z</time>
      </trkpt>
      <trkpt lat="44.99815" lon="4.5241">
        <ele>392</ele>
        <time>2015-10-26T14:01:49Z</time>
      </trkpt>
      <trkpt lat="44.99816" lon="4.52428">
        <ele>392</ele>
        <time>2015-10-26T14:01:54Z</time>
      </trkpt>
      <trkpt lat="44.99813" lon="4.5244">
        <ele>392</ele>
        <time>2015-10-26T14:01:58Z</time>
      </trkpt>
      <trkpt lat="44.99812" lon="4.52443">
        <ele>393</ele>
        <time>2015-10-26T14:02:00Z</time>
      </trkpt>
      <trkpt lat="44.9979" lon="4.52465">
        <ele>400</ele>
        <time>2015-10-26T14:02:22Z</time>
      </trkpt>
      <trkpt lat="44.99783" lon="4.52478">
        <ele>401</ele>
        <time>2015-10-26T14:02:27Z</time>
      </trkpt>
      <trkpt lat="44.99778" lon="4.52486">
        <ele>402</ele>
        <time>2015-10-26T14:02:32Z</time>
      </trkpt>
      <trkpt lat="44.99777" lon="4.52489">
        <ele>403</ele>
        <time>2015-10-26T14:02:32Z</time>
      </trkpt>
      <trkpt lat="44.99763" lon="4.52521">
        <ele>406</ele>
        <time>2015-10-26T14:02:51Z</time>
      </trkpt>
      <trkpt lat="44.99759" lon="4.52531">
        <ele>407</ele>
        <time>2015-10-26T14:02:55Z</time>
      </trkpt>
      <trkpt lat="44.99755" lon="4.52542">
        <ele>408</ele>
        <time>2015-10-26T14:03:02Z</time>
      </trkpt>
      <trkpt lat="44.9975" lon="4.52551">
        <ele>410</ele>
        <time>2015-10-26T14:03:10Z</time>
      </trkpt>
      <trkpt lat="44.99745" lon="4.52565">
        <ele>411</ele>
        <time>2015-10-26T14:03:15Z</time>
      </trkpt>
      <trkpt lat="44.9974" lon="4.52575">
        <ele>411</ele>
        <time>2015-10-26T14:03:18Z</time>
      </trkpt>
      <trkpt lat="44.9974" lon="4.52585">
        <ele>411</ele>
        <time>2015-10-26T14:03:22Z</time>
      </trkpt>
      <trkpt lat="44.99737" lon="4.52595">
        <ele>411</ele>
        <time>2015-10-26T14:03:28Z</time>
      </trkpt>
      <trkpt lat="44.99733" lon="4.52602">
        <ele>411</ele>
        <time>2015-10-26T14:03:32Z</time>
      </trkpt>
      <trkpt lat="44.9973" lon="4.52614">
        <ele>411</ele>
        <time>2015-10-26T14:03:36Z</time>
      </trkpt>
      <trkpt lat="44.99725" lon="4.52623">
        <ele>411</ele>
        <time>2015-10-26T14:03:44Z</time>
      </trkpt>
      <trkpt lat="44.9972" lon="4.52632">
        <ele>411</ele>
        <time>2015-10-26T14:03:51Z</time>
      </trkpt>
      <trkpt lat="44.99715" lon="4.52644">
        <ele>411</ele>
        <time>2015-10-26T14:03:56Z</time>
      </trkpt>
      <trkpt lat="44.99711" lon="4.52656">
        <ele>411</ele>
        <time>2015-10-26T14:04:00Z</time>
      </trkpt>
      <trkpt lat="44.99707" lon="4.52667">
        <ele>411</ele>
        <time>2015-10-26T14:04:06Z</time>
      </trkpt>
      <trkpt lat="44.99702" lon="4.52675">
        <ele>411</ele>
        <time>2015-10-26T14:04:12Z</time>
      </trkpt>
      <trkpt lat="44.99697" lon="4.52686">
        <ele>410</ele>
        <time>2015-10-26T14:04:17Z</time>
      </trkpt>
      <trkpt lat="44.99693" lon="4.52696">
        <ele>409</ele>
        <time>2015-10-26T14:04:21Z</time>
      </trkpt>
      <trkpt lat="44.99688" lon="4.52708">
        <ele>408</ele>
        <time>2015-10-26T14:04:26Z</time>
      </trkpt>
      <trkpt lat="44.99684" lon="4.52718">
        <ele>406</ele>
        <time>2015-10-26T14:04:34Z</time>
      </trkpt>
      <trkpt lat="44.99678" lon="4.52728">
        <ele>404</ele>
        <time>2015-10-26T14:04:40Z</time>
      </trkpt>
      <trkpt lat="44.99674" lon="4.5274">
        <ele>403</ele>
        <time>2015-10-26T14:04:44Z</time>
      </trkpt>
      <trkpt lat="44.99668" lon="4.52747">
        <ele>402</ele>
        <time>2015-10-26T14:04:54Z</time>
      </trkpt>
      <trkpt lat="44.99663" lon="4.52765">
        <ele>396</ele>
        <time>2015-10-26T14:04:59Z</time>
      </trkpt>
      <trkpt lat="44.99657" lon="4.52775">
        <ele>395</ele>
        <time>2015-10-26T14:05:03Z</time>
      </trkpt>
      <trkpt lat="44.99649" lon="4.52785">
        <ele>394</ele>
        <time>2015-10-26T14:05:08Z</time>
      </trkpt>
      <trkpt lat="44.99644" lon="4.52794">
        <ele>392</ele>
        <time>2015-10-26T14:05:20Z</time>
      </trkpt>
      <trkpt lat="44.99638" lon="4.52803">
        <ele>391</ele>
        <time>2015-10-26T14:05:24Z</time>
      </trkpt>
      <trkpt lat="44.99633" lon="4.52814">
        <ele>391</ele>
        <time>2015-10-26T14:05:27Z</time>
      </trkpt>
      <trkpt lat="44.99627" lon="4.52825">
        <ele>390</ele>
        <time>2015-10-26T14:05:31Z</time>
      </trkpt>
      <trkpt lat="44.99621" lon="4.52833">
        <ele>389</ele>
        <time>2015-10-26T14:05:36Z</time>
      </trkpt>
      <trkpt lat="44.99616" lon="4.52841">
        <ele>390</ele>
        <time>2015-10-26T14:05:46Z</time>
      </trkpt>
      <trkpt lat="44.99611" lon="4.5285">
        <ele>390</ele>
        <time>2015-10-26T14:05:50Z</time>
      </trkpt>
      <trkpt lat="44.99605" lon="4.5286">
        <ele>390</ele>
        <time>2015-10-26T14:05:54Z</time>
      </trkpt>
      <trkpt lat="44.99599" lon="4.52871">
        <ele>390</ele>
        <time>2015-10-26T14:05:59Z</time>
      </trkpt>
      <trkpt lat="44.99596" lon="4.5288">
        <ele>390</ele>
        <time>2015-10-26T14:06:05Z</time>
      </trkpt>
      <trkpt lat="44.99591" lon="4.52886">
        <ele>390</ele>
        <time>2015-10-26T14:06:10Z</time>
      </trkpt>
      <trkpt lat="44.99586" lon="4.52894">
        <ele>391</ele>
        <time>2015-10-26T14:06:14Z</time>
      </trkpt>
      <trkpt lat="44.9958" lon="4.52905">
        <ele>391</ele>
        <time>2015-10-26T14:06:18Z</time>
      </trkpt>
      <trkpt lat="44.99574" lon="4.52916">
        <ele>391</ele>
        <time>2015-10-26T14:06:23Z</time>
      </trkpt>
      <trkpt lat="44.99569" lon="4.52922">
        <ele>391</ele>
        <time>2015-10-26T14:06:31Z</time>
      </trkpt>
      <trkpt lat="44.99564" lon="4.52932">
        <ele>392</ele>
        <time>2015-10-26T14:06:38Z</time>
      </trkpt>
      <trkpt lat="44.99559" lon="4.52939">
        <ele>392</ele>
        <time>2015-10-26T14:06:40Z</time>
      </trkpt>
      <trkpt lat="44.99546" lon="4.52963">
        <ele>394</ele>
        <time>2015-10-26T14:06:56Z</time>
      </trkpt>
      <trkpt lat="44.99543" lon="4.52976">
        <ele>394</ele>
        <time>2015-10-26T14:07:01Z</time>
      </trkpt>
      <trkpt lat="44.99538" lon="4.52987">
        <ele>394</ele>
        <time>2015-10-26T14:07:05Z</time>
      </trkpt>
      <trkpt lat="44.99533" lon="4.52999">
        <ele>395</ele>
        <time>2015-10-26T14:07:10Z</time>
      </trkpt>
      <trkpt lat="44.99529" lon="4.53006">
        <ele>395</ele>
        <time>2015-10-26T14:07:20Z</time>
      </trkpt>
      <trkpt lat="44.99521" lon="4.5301">
        <ele>394</ele>
        <time>2015-10-26T14:07:25Z</time>
      </trkpt>
      <trkpt lat="44.9951" lon="4.53012">
        <ele>395</ele>
        <time>2015-10-26T14:07:30Z</time>
      </trkpt>
      <trkpt lat="44.99503" lon="4.53011">
        <ele>395</ele>
        <time>2015-10-26T14:07:35Z</time>
      </trkpt>
      <trkpt lat="44.99495" lon="4.53005">
        <ele>396</ele>
        <time>2015-10-26T14:07:43Z</time>
      </trkpt>
      <trkpt lat="44.9949" lon="4.53">
        <ele>396</ele>
        <time>2015-10-26T14:07:46Z</time>
      </trkpt>
      <trkpt lat="44.99481" lon="4.52995">
        <ele>396</ele>
        <time>2015-10-26T14:07:50Z</time>
      </trkpt>
      <trkpt lat="44.99471" lon="4.52988">
        <ele>396</ele>
        <time>2015-10-26T14:07:54Z</time>
      </trkpt>
      <trkpt lat="44.99465" lon="4.52982">
        <ele>394</ele>
        <time>2015-10-26T14:08:02Z</time>
      </trkpt>
      <trkpt lat="44.99459" lon="4.52975">
        <ele>392</ele>
        <time>2015-10-26T14:08:09Z</time>
      </trkpt>
      <trkpt lat="44.99452" lon="4.52972">
        <ele>392</ele>
        <time>2015-10-26T14:08:15Z</time>
      </trkpt>
      <trkpt lat="44.99442" lon="4.52971">
        <ele>391</ele>
        <time>2015-10-26T14:08:17Z</time>
      </trkpt>
      <trkpt lat="44.99435" lon="4.52973">
        <ele>390</ele>
        <time>2015-10-26T14:08:22Z</time>
      </trkpt>
      <trkpt lat="44.99426" lon="4.52978">
        <ele>389</ele>
        <time>2015-10-26T14:08:26Z</time>
      </trkpt>
      <trkpt lat="44.99421" lon="4.52986">
        <ele>389</ele>
        <time>2015-10-26T14:08:35Z</time>
      </trkpt>
      <trkpt lat="44.99414" lon="4.52991">
        <ele>389</ele>
        <time>2015-10-26T14:08:39Z</time>
      </trkpt>
      <trkpt lat="44.99406" lon="4.52999">
        <ele>389</ele>
        <time>2015-10-26T14:08:43Z</time>
      </trkpt>
      <trkpt lat="44.99398" lon="4.53005">
        <ele>389</ele>
        <time>2015-10-26T14:08:48Z</time>
      </trkpt>
      <trkpt lat="44.99391" lon="4.53014">
        <ele>389</ele>
        <time>2015-10-26T14:08:56Z</time>
      </trkpt>
      <trkpt lat="44.99387" lon="4.53019">
        <ele>390</ele>
        <time>2015-10-26T14:09:00Z</time>
      </trkpt>
      <trkpt lat="44.99382" lon="4.53023">
        <ele>390</ele>
        <time>2015-10-26T14:09:03Z</time>
      </trkpt>
      <trkpt lat="44.99373" lon="4.53032">
        <ele>390</ele>
        <time>2015-10-26T14:09:08Z</time>
      </trkpt>
      <trkpt lat="44.99368" lon="4.53041">
        <ele>390</ele>
        <time>2015-10-26T14:09:13Z</time>
      </trkpt>
      <trkpt lat="44.99362" lon="4.53048">
        <ele>391</ele>
        <time>2015-10-26T14:09:18Z</time>
      </trkpt>
      <trkpt lat="44.99355" lon="4.53054">
        <ele>391</ele>
        <time>2015-10-26T14:09:24Z</time>
      </trkpt>
      <trkpt lat="44.9935" lon="4.53059">
        <ele>391</ele>
        <time>2015-10-26T14:09:27Z</time>
      </trkpt>
      <trkpt lat="44.99343" lon="4.53063">
        <ele>390</ele>
        <time>2015-10-26T14:09:32Z</time>
      </trkpt>
      <trkpt lat="44.99334" lon="4.53067">
        <ele>390</ele>
        <time>2015-10-26T14:09:39Z</time>
      </trkpt>
      <trkpt lat="44.99328" lon="4.53071">
        <ele>390</ele>
        <time>2015-10-26T14:09:45Z</time>
      </trkpt>
      <trkpt lat="44.99318" lon="4.53077">
        <ele>390</ele>
        <time>2015-10-26T14:09:50Z</time>
      </trkpt>
      <trkpt lat="44.99311" lon="4.53078">
        <ele>389</ele>
        <time>2015-10-26T14:09:53Z</time>
      </trkpt>
      <trkpt lat="44.99303" lon="4.53081">
        <ele>388</ele>
        <time>2015-10-26T14:09:59Z</time>
      </trkpt>
      <trkpt lat="44.99297" lon="4.53086">
        <ele>387</ele>
        <time>2015-10-26T14:10:07Z</time>
      </trkpt>
      <trkpt lat="44.99288" lon="4.5309">
        <ele>387</ele>
        <time>2015-10-26T14:10:13Z</time>
      </trkpt>
      <trkpt lat="44.99284" lon="4.53089">
        <ele>387</ele>
        <time>2015-10-26T14:10:15Z</time>
      </trkpt>
      <trkpt lat="44.99277" lon="4.53078">
        <ele>386</ele>
        <time>2015-10-26T14:10:20Z</time>
      </trkpt>
      <trkpt lat="44.99273" lon="4.53069">
        <ele>385</ele>
        <time>2015-10-26T14:10:23Z</time>
      </trkpt>
      <trkpt lat="44.99269" lon="4.53058">
        <ele>381</ele>
        <time>2015-10-26T14:10:35Z</time>
      </trkpt>
      <trkpt lat="44.99265" lon="4.53047">
        <ele>380</ele>
        <time>2015-10-26T14:10:40Z</time>
      </trkpt>
      <trkpt lat="44.99262" lon="4.53036">
        <ele>379</ele>
        <time>2015-10-26T14:10:44Z</time>
      </trkpt>
      <trkpt lat="44.99258" lon="4.53025">
        <ele>378</ele>
        <time>2015-10-26T14:10:49Z</time>
      </trkpt>
      <trkpt lat="44.99254" lon="4.53014">
        <ele>377</ele>
        <time>2015-10-26T14:10:55Z</time>
      </trkpt>
      <trkpt lat="44.9925" lon="4.53006">
        <ele>377</ele>
        <time>2015-10-26T14:10:59Z</time>
      </trkpt>
      <trkpt lat="44.99245" lon="4.52996">
        <ele>376</ele>
        <time>2015-10-26T14:11:05Z</time>
      </trkpt>
      <trkpt lat="44.99244" lon="4.52984">
        <ele>374</ele>
        <time>2015-10-26T14:11:12Z</time>
      </trkpt>
      <trkpt lat="44.9924" lon="4.52978">
        <ele>374</ele>
        <time>2015-10-26T14:11:16Z</time>
      </trkpt>
      <trkpt lat="44.99235" lon="4.52967">
        <ele>373</ele>
        <time>2015-10-26T14:11:20Z</time>
      </trkpt>
      <trkpt lat="44.99232" lon="4.52957">
        <ele>372</ele>
        <time>2015-10-26T14:11:25Z</time>
      </trkpt>
      <trkpt lat="44.99225" lon="4.52949">
        <ele>371</ele>
        <time>2015-10-26T14:11:33Z</time>
      </trkpt>
      <trkpt lat="44.99222" lon="4.52941">
        <ele>370</ele>
        <time>2015-10-26T14:11:37Z</time>
      </trkpt>
      <trkpt lat="44.99218" lon="4.52927">
        <ele>370</ele>
        <time>2015-10-26T14:11:42Z</time>
      </trkpt>
      <trkpt lat="44.99215" lon="4.52914">
        <ele>370</ele>
        <time>2015-10-26T14:11:47Z</time>
      </trkpt>
      <trkpt lat="44.99211" lon="4.52906">
        <ele>369</ele>
        <time>2015-10-26T14:11:52Z</time>
      </trkpt>
      <trkpt lat="44.99207" lon="4.52897">
        <ele>369</ele>
        <time>2015-10-26T14:11:59Z</time>
      </trkpt>
      <trkpt lat="44.99206" lon="4.52891">
        <ele>369</ele>
        <time>2015-10-26T14:12:02Z</time>
      </trkpt>
      <trkpt lat="44.99204" lon="4.52876">
        <ele>369</ele>
        <time>2015-10-26T14:12:07Z</time>
      </trkpt>
      <trkpt lat="44.99208" lon="4.5287">
        <ele>369</ele>
        <time>2015-10-26T14:12:10Z</time>
      </trkpt>
      <trkpt lat="44.99212" lon="4.52859">
        <ele>369</ele>
        <time>2015-10-26T14:12:16Z</time>
      </trkpt>
      <trkpt lat="44.99217" lon="4.52852">
        <ele>369</ele>
        <time>2015-10-26T14:12:22Z</time>
      </trkpt>
      <trkpt lat="44.99224" lon="4.52845">
        <ele>370</ele>
        <time>2015-10-26T14:12:27Z</time>
      </trkpt>
      <trkpt lat="44.99232" lon="4.52838">
        <ele>370</ele>
        <time>2015-10-26T14:12:32Z</time>
      </trkpt>
      <trkpt lat="44.99239" lon="4.52832">
        <ele>371</ele>
        <time>2015-10-26T14:12:38Z</time>
      </trkpt>
      <trkpt lat="44.99246" lon="4.52826">
        <ele>374</ele>
        <time>2015-10-26T14:12:46Z</time>
      </trkpt>
      <trkpt lat="44.99253" lon="4.52822">
        <ele>375</ele>
        <time>2015-10-26T14:12:52Z</time>
      </trkpt>
      <trkpt lat="44.99261" lon="4.52817">
        <ele>376</ele>
        <time>2015-10-26T14:13:00Z</time>
      </trkpt>
      <trkpt lat="44.99266" lon="4.5281">
        <ele>377</ele>
        <time>2015-10-26T14:13:11Z</time>
      </trkpt>
      <trkpt lat="44.9927" lon="4.52795">
        <ele>377</ele>
        <time>2015-10-26T14:13:16Z</time>
      </trkpt>
      <trkpt lat="44.99278" lon="4.52783">
        <ele>377</ele>
        <time>2015-10-26T14:13:21Z</time>
      </trkpt>
      <trkpt lat="44.99286" lon="4.52777">
        <ele>377</ele>
        <time>2015-10-26T14:13:26Z</time>
      </trkpt>
      <trkpt lat="44.99292" lon="4.52767">
        <ele>379</ele>
        <time>2015-10-26T14:13:31Z</time>
      </trkpt>
      <trkpt lat="44.99298" lon="4.52759">
        <ele>381</ele>
        <time>2015-10-26T14:13:40Z</time>
      </trkpt>
      <trkpt lat="44.99303" lon="4.52751">
        <ele>382</ele>
        <time>2015-10-26T14:13:45Z</time>
      </trkpt>
      <trkpt lat="44.99308" lon="4.5274">
        <ele>383</ele>
        <time>2015-10-26T14:13:49Z</time>
      </trkpt>
      <trkpt lat="44.99314" lon="4.52732">
        <ele>384</ele>
        <time>2015-10-26T14:13:54Z</time>
      </trkpt>
      <trkpt lat="44.99318" lon="4.52724">
        <ele>385</ele>
        <time>2015-10-26T14:13:58Z</time>
      </trkpt>
      <trkpt lat="44.99324" lon="4.52715">
        <ele>387</ele>
        <time>2015-10-26T14:14:02Z</time>
      </trkpt>
      <trkpt lat="44.99326" lon="4.52704">
        <ele>388</ele>
        <time>2015-10-26T14:14:07Z</time>
      </trkpt>
      <trkpt lat="44.99327" lon="4.52692">
        <ele>388</ele>
        <time>2015-10-26T14:14:13Z</time>
      </trkpt>
      <trkpt lat="44.99327" lon="4.52681">
        <ele>390</ele>
        <time>2015-10-26T14:14:22Z</time>
      </trkpt>
      <trkpt lat="44.99329" lon="4.52671">
        <ele>393</ele>
        <time>2015-10-26T14:14:28Z</time>
      </trkpt>
      <trkpt lat="44.99332" lon="4.52663">
        <ele>393</ele>
        <time>2015-10-26T14:14:31Z</time>
      </trkpt>
      <trkpt lat="44.99338" lon="4.52652">
        <ele>394</ele>
        <time>2015-10-26T14:14:36Z</time>
      </trkpt>
      <trkpt lat="44.99342" lon="4.52643">
        <ele>397</ele>
        <time>2015-10-26T14:14:44Z</time>
      </trkpt>
      <trkpt lat="44.99347" lon="4.52631">
        <ele>398</ele>
        <time>2015-10-26T14:14:48Z</time>
      </trkpt>
      <trkpt lat="44.99353" lon="4.52618">
        <ele>399</ele>
        <time>2015-10-26T14:14:53Z</time>
      </trkpt>
      <trkpt lat="44.99357" lon="4.52608">
        <ele>403</ele>
        <time>2015-10-26T14:15:00Z</time>
      </trkpt>
      <trkpt lat="44.99359" lon="4.52598">
        <ele>404</ele>
        <time>2015-10-26T14:15:08Z</time>
      </trkpt>
      <trkpt lat="44.99361" lon="4.52586">
        <ele>405</ele>
        <time>2015-10-26T14:15:13Z</time>
      </trkpt>
      <trkpt lat="44.99365" lon="4.52571">
        <ele>406</ele>
        <time>2015-10-26T14:15:18Z</time>
      </trkpt>
      <trkpt lat="44.99366" lon="4.5256">
        <ele>407</ele>
        <time>2015-10-26T14:15:24Z</time>
      </trkpt>
      <trkpt lat="44.9937" lon="4.52549">
        <ele>406</ele>
        <time>2015-10-26T14:15:31Z</time>
      </trkpt>
      <trkpt lat="44.99373" lon="4.52538">
        <ele>407</ele>
        <time>2015-10-26T14:15:35Z</time>
      </trkpt>
      <trkpt lat="44.99382" lon="4.52531">
        <ele>407</ele>
        <time>2015-10-26T14:15:40Z</time>
      </trkpt>
      <trkpt lat="44.99386" lon="4.52522">
        <ele>407</ele>
        <time>2015-10-26T14:15:45Z</time>
      </trkpt>
      <trkpt lat="44.99391" lon="4.52512">
        <ele>408</ele>
        <time>2015-10-26T14:15:52Z</time>
      </trkpt>
      <trkpt lat="44.99395" lon="4.52503">
        <ele>408</ele>
        <time>2015-10-26T14:15:57Z</time>
      </trkpt>
      <trkpt lat="44.99398" lon="4.5249">
        <ele>409</ele>
        <time>2015-10-26T14:16:02Z</time>
      </trkpt>
      <trkpt lat="44.99401" lon="4.5248">
        <ele>410</ele>
        <time>2015-10-26T14:16:07Z</time>
      </trkpt>
      <trkpt lat="44.99401" lon="4.52475">
        <ele>410</ele>
        <time>2015-10-26T14:16:09Z</time>
      </trkpt>
      <trkpt lat="44.99398" lon="4.52464">
        <ele>410</ele>
        <time>2015-10-26T14:16:16Z</time>
      </trkpt>
      <trkpt lat="44.99397" lon="4.52454">
        <ele>409</ele>
        <time>2015-10-26T14:16:20Z</time>
      </trkpt>
      <trkpt lat="44.99401" lon="4.52439">
        <ele>408</ele>
        <time>2015-10-26T14:16:25Z</time>
      </trkpt>
      <trkpt lat="44.99405" lon="4.52428">
        <ele>408</ele>
        <time>2015-10-26T14:16:29Z</time>
      </trkpt>
      <trkpt lat="44.99408" lon="4.52418">
        <ele>408</ele>
        <time>2015-10-26T14:16:45Z</time>
      </trkpt>
      <trkpt lat="44.99406" lon="4.52388">
        <ele>407</ele>
        <time>2015-10-26T14:16:50Z</time>
      </trkpt>
      <trkpt lat="44.99407" lon="4.52379">
        <ele>406</ele>
        <time>2015-10-26T14:16:55Z</time>
      </trkpt>
      <trkpt lat="44.99408" lon="4.52367">
        <ele>406</ele>
        <time>2015-10-26T14:17:02Z</time>
      </trkpt>
      <trkpt lat="44.99409" lon="4.52357">
        <ele>406</ele>
        <time>2015-10-26T14:17:06Z</time>
      </trkpt>
      <trkpt lat="44.99408" lon="4.52343">
        <ele>406</ele>
        <time>2015-10-26T14:17:10Z</time>
      </trkpt>
      <trkpt lat="44.99408" lon="4.52332">
        <ele>406</ele>
        <time>2015-10-26T14:17:16Z</time>
      </trkpt>
      <trkpt lat="44.99407" lon="4.5232">
        <ele>406</ele>
        <time>2015-10-26T14:17:23Z</time>
      </trkpt>
      <trkpt lat="44.99409" lon="4.52307">
        <ele>405</ele>
        <time>2015-10-26T14:17:27Z</time>
      </trkpt>
      <trkpt lat="44.99408" lon="4.52297">
        <ele>405</ele>
        <time>2015-10-26T14:17:31Z</time>
      </trkpt>
      <trkpt lat="44.99407" lon="4.52286">
        <ele>404</ele>
        <time>2015-10-26T14:17:37Z</time>
      </trkpt>
      <trkpt lat="44.99406" lon="4.52276">
        <ele>403</ele>
        <time>2015-10-26T14:17:41Z</time>
      </trkpt>
      <trkpt lat="44.99406" lon="4.52265">
        <ele>403</ele>
        <time>2015-10-26T14:17:46Z</time>
      </trkpt>
      <trkpt lat="44.99407" lon="4.52248">
        <ele>403</ele>
        <time>2015-10-26T14:17:51Z</time>
      </trkpt>
      <trkpt lat="44.99406" lon="4.5224">
        <ele>403</ele>
        <time>2015-10-26T14:17:58Z</time>
      </trkpt>
      <trkpt lat="44.99405" lon="4.52229">
        <ele>402</ele>
        <time>2015-10-26T14:18:02Z</time>
      </trkpt>
      <trkpt lat="44.99405" lon="4.5222">
        <ele>402</ele>
        <time>2015-10-26T14:18:06Z</time>
      </trkpt>
      <trkpt lat="44.99402" lon="4.52209">
        <ele>402</ele>
        <time>2015-10-26T14:18:10Z</time>
      </trkpt>
      <trkpt lat="44.99403" lon="4.52206">
        <ele>402</ele>
        <time>2015-10-26T14:18:12Z</time>
      </trkpt>
      <trkpt lat="44.99404" lon="4.52189">
        <ele>403</ele>
        <time>2015-10-26T14:18:22Z</time>
      </trkpt>
      <trkpt lat="44.99405" lon="4.52179">
        <ele>402</ele>
        <time>2015-10-26T14:18:30Z</time>
      </trkpt>
      <trkpt lat="44.99404" lon="4.52163">
        <ele>401</ele>
        <time>2015-10-26T14:18:34Z</time>
      </trkpt>
      <trkpt lat="44.99405" lon="4.52151">
        <ele>400</ele>
        <time>2015-10-26T14:18:41Z</time>
      </trkpt>
      <trkpt lat="44.99403" lon="4.52141">
        <ele>400</ele>
        <time>2015-10-26T14:18:44Z</time>
      </trkpt>
      <trkpt lat="44.994" lon="4.52121">
        <ele>401</ele>
        <time>2015-10-26T14:18:52Z</time>
      </trkpt>
      <trkpt lat="44.99396" lon="4.52111">
        <ele>401</ele>
        <time>2015-10-26T14:18:57Z</time>
      </trkpt>
      <trkpt lat="44.99395" lon="4.52107">
        <ele>401</ele>
        <time>2015-10-26T14:18:59Z</time>
      </trkpt>
      <trkpt lat="44.99391" lon="4.52094">
        <ele>401</ele>
        <time>2015-10-26T14:19:04Z</time>
      </trkpt>
      <trkpt lat="44.99386" lon="4.52083">
        <ele>400</ele>
        <time>2015-10-26T14:19:08Z</time>
      </trkpt>
      <trkpt lat="44.99382" lon="4.52074">
        <ele>400</ele>
        <time>2015-10-26T14:19:12Z</time>
      </trkpt>
      <trkpt lat="44.99378" lon="4.52063">
        <ele>399</ele>
        <time>2015-10-26T14:19:19Z</time>
      </trkpt>
      <trkpt lat="44.99373" lon="4.52056">
        <ele>400</ele>
        <time>2015-10-26T14:19:26Z</time>
      </trkpt>
      <trkpt lat="44.99372" lon="4.52046">
        <ele>402</ele>
        <time>2015-10-26T14:19:31Z</time>
      </trkpt>
      <trkpt lat="44.99369" lon="4.52035">
        <ele>403</ele>
        <time>2015-10-26T14:19:37Z</time>
      </trkpt>
      <trkpt lat="44.99368" lon="4.52023">
        <ele>403</ele>
        <time>2015-10-26T14:19:43Z</time>
      </trkpt>
      <trkpt lat="44.99368" lon="4.52016">
        <ele>404</ele>
        <time>2015-10-26T14:19:46Z</time>
      </trkpt>
      <trkpt lat="44.99364" lon="4.52002">
        <ele>404</ele>
        <time>2015-10-26T14:19:51Z</time>
      </trkpt>
      <trkpt lat="44.99361" lon="4.51996">
        <ele>405</ele>
        <time>2015-10-26T14:19:54Z</time>
      </trkpt>
      <trkpt lat="44.99356" lon="4.51988">
        <ele>404</ele>
        <time>2015-10-26T14:19:58Z</time>
      </trkpt>
      <trkpt lat="44.99351" lon="4.51981">
        <ele>405</ele>
        <time>2015-10-26T14:20:02Z</time>
      </trkpt>
      <trkpt lat="44.99343" lon="4.5197">
        <ele>405</ele>
        <time>2015-10-26T14:20:07Z</time>
      </trkpt>
      <trkpt lat="44.99338" lon="4.51962">
        <ele>405</ele>
        <time>2015-10-26T14:20:10Z</time>
      </trkpt>
      <trkpt lat="44.99336" lon="4.51951">
        <ele>405</ele>
        <time>2015-10-26T14:20:16Z</time>
      </trkpt>
      <trkpt lat="44.99332" lon="4.51942">
        <ele>403</ele>
        <time>2015-10-26T14:20:21Z</time>
      </trkpt>
      <trkpt lat="44.99323" lon="4.5193">
        <ele>402</ele>
        <time>2015-10-26T14:20:26Z</time>
      </trkpt>
      <trkpt lat="44.99315" lon="4.51927">
        <ele>401</ele>
        <time>2015-10-26T14:20:31Z</time>
      </trkpt>
      <trkpt lat="44.99316" lon="4.51917">
        <ele>398</ele>
        <time>2015-10-26T14:20:38Z</time>
      </trkpt>
      <trkpt lat="44.99315" lon="4.51906">
        <ele>397</ele>
        <time>2015-10-26T14:20:42Z</time>
      </trkpt>
      <trkpt lat="44.99314" lon="4.51894">
        <ele>397</ele>
        <time>2015-10-26T14:20:46Z</time>
      </trkpt>
      <trkpt lat="44.99314" lon="4.51883">
        <ele>397</ele>
        <time>2015-10-26T14:20:52Z</time>
      </trkpt>
      <trkpt lat="44.99313" lon="4.51876">
        <ele>395</ele>
        <time>2015-10-26T14:20:56Z</time>
      </trkpt>
      <trkpt lat="44.99313" lon="4.51864">
        <ele>394</ele>
        <time>2015-10-26T14:21:00Z</time>
      </trkpt>
      <trkpt lat="44.99316" lon="4.51852">
        <ele>393</ele>
        <time>2015-10-26T14:21:05Z</time>
      </trkpt>
      <trkpt lat="44.99316" lon="4.51844">
        <ele>392</ele>
        <time>2015-10-26T14:21:10Z</time>
      </trkpt>
      <trkpt lat="44.99317" lon="4.51834">
        <ele>391</ele>
        <time>2015-10-26T14:21:14Z</time>
      </trkpt>
      <trkpt lat="44.99317" lon="4.51824">
        <ele>390</ele>
        <time>2015-10-26T14:21:17Z</time>
      </trkpt>
      <trkpt lat="44.99318" lon="4.5181">
        <ele>390</ele>
        <time>2015-10-26T14:21:22Z</time>
      </trkpt>
      <trkpt lat="44.99317" lon="4.51799">
        <ele>390</ele>
        <time>2015-10-26T14:21:29Z</time>
      </trkpt>
      <trkpt lat="44.99313" lon="4.5179">
        <ele>389</ele>
        <time>2015-10-26T14:21:36Z</time>
      </trkpt>
      <trkpt lat="44.99314" lon="4.51774">
        <ele>390</ele>
        <time>2015-10-26T14:21:41Z</time>
      </trkpt>
      <trkpt lat="44.99313" lon="4.5176">
        <ele>391</ele>
        <time>2015-10-26T14:21:46Z</time>
      </trkpt>
      <trkpt lat="44.99316" lon="4.51749">
        <ele>391</ele>
        <time>2015-10-26T14:21:50Z</time>
      </trkpt>
      <trkpt lat="44.99317" lon="4.51736">
        <ele>394</ele>
        <time>2015-10-26T14:22:02Z</time>
      </trkpt>
      <trkpt lat="44.99316" lon="4.51724">
        <ele>395</ele>
        <time>2015-10-26T14:22:07Z</time>
      </trkpt>
      <trkpt lat="44.99318" lon="4.51714">
        <ele>395</ele>
        <time>2015-10-26T14:22:11Z</time>
      </trkpt>
      <trkpt lat="44.99321" lon="4.51702">
        <ele>395</ele>
        <time>2015-10-26T14:22:14Z</time>
      </trkpt>
      <trkpt lat="44.99329" lon="4.51687">
        <ele>395</ele>
        <time>2015-10-26T14:22:17Z</time>
      </trkpt>
      <trkpt lat="44.99331" lon="4.51676">
        <ele>397</ele>
        <time>2015-10-26T14:22:29Z</time>
      </trkpt>
      <trkpt lat="44.99339" lon="4.51675">
        <ele>397</ele>
        <time>2015-10-26T14:22:37Z</time>
      </trkpt>
      <trkpt lat="44.99347" lon="4.51677">
        <ele>398</ele>
        <time>2015-10-26T14:22:44Z</time>
      </trkpt>
      <trkpt lat="44.99352" lon="4.51676">
        <ele>399</ele>
        <time>2015-10-26T14:22:48Z</time>
      </trkpt>
      <trkpt lat="44.9936" lon="4.51676">
        <ele>399</ele>
        <time>2015-10-26T14:22:55Z</time>
      </trkpt>
      <trkpt lat="44.99366" lon="4.51679">
        <ele>400</ele>
        <time>2015-10-26T14:23:02Z</time>
      </trkpt>
      <trkpt lat="44.99378" lon="4.51684">
        <ele>401</ele>
        <time>2015-10-26T14:23:06Z</time>
      </trkpt>
      <trkpt lat="44.99393" lon="4.51688">
        <ele>401</ele>
        <time>2015-10-26T14:23:10Z</time>
      </trkpt>
      <trkpt lat="44.99396" lon="4.51698">
        <ele>401</ele>
        <time>2015-10-26T14:23:14Z</time>
      </trkpt>
      <trkpt lat="44.99401" lon="4.51706">
        <ele>402</ele>
        <time>2015-10-26T14:23:17Z</time>
      </trkpt>
      <trkpt lat="44.99405" lon="4.51715">
        <ele>402</ele>
        <time>2015-10-26T14:23:22Z</time>
      </trkpt>
      <trkpt lat="44.99404" lon="4.51726">
        <ele>403</ele>
        <time>2015-10-26T14:23:26Z</time>
      </trkpt>
      <trkpt lat="44.99411" lon="4.5173">
        <ele>404</ele>
        <time>2015-10-26T14:23:30Z</time>
      </trkpt>
      <trkpt lat="44.99406" lon="4.51722">
        <ele>406</ele>
        <time>2015-10-26T14:23:37Z</time>
      </trkpt>
      <trkpt lat="44.99408" lon="4.51711">
        <ele>406</ele>
        <time>2015-10-26T14:23:40Z</time>
      </trkpt>
      <trkpt lat="44.99422" lon="4.51707">
        <ele>406</ele>
        <time>2015-10-26T14:23:44Z</time>
      </trkpt>
      <trkpt lat="44.99433" lon="4.51708">
        <ele>405</ele>
        <time>2015-10-26T14:23:48Z</time>
      </trkpt>
      <trkpt lat="44.99439" lon="4.51711">
        <ele>405</ele>
        <time>2015-10-26T14:23:52Z</time>
      </trkpt>
      <trkpt lat="44.99445" lon="4.51713">
        <ele>405</ele>
        <time>2015-10-26T14:23:56Z</time>
      </trkpt>
      <trkpt lat="44.99457" lon="4.5171">
        <ele>405</ele>
        <time>2015-10-26T14:24:01Z</time>
      </trkpt>
      <trkpt lat="44.99465" lon="4.51703">
        <ele>404</ele>
        <time>2015-10-26T14:24:05Z</time>
      </trkpt>
      <trkpt lat="44.99468" lon="4.51691">
        <ele>404</ele>
        <time>2015-10-26T14:24:11Z</time>
      </trkpt>
      <trkpt lat="44.99473" lon="4.51688">
        <ele>404</ele>
        <time>2015-10-26T14:24:16Z</time>
      </trkpt>
      <trkpt lat="44.99481" lon="4.51685">
        <ele>404</ele>
        <time>2015-10-26T14:24:21Z</time>
      </trkpt>
      <trkpt lat="44.99487" lon="4.51683">
        <ele>403</ele>
        <time>2015-10-26T14:24:26Z</time>
      </trkpt>
      <trkpt lat="44.99495" lon="4.5168">
        <ele>403</ele>
        <time>2015-10-26T14:24:30Z</time>
      </trkpt>
      <trkpt lat="44.99505" lon="4.51687">
        <ele>403</ele>
        <time>2015-10-26T14:24:35Z</time>
      </trkpt>
      <trkpt lat="44.99511" lon="4.51695">
        <ele>403</ele>
        <time>2015-10-26T14:24:42Z</time>
      </trkpt>
      <trkpt lat="44.99517" lon="4.51697">
        <ele>402</ele>
        <time>2015-10-26T14:24:47Z</time>
      </trkpt>
      <trkpt lat="44.99525" lon="4.51698">
        <ele>402</ele>
        <time>2015-10-26T14:24:54Z</time>
      </trkpt>
      <trkpt lat="44.99533" lon="4.51702">
        <ele>402</ele>
        <time>2015-10-26T14:24:59Z</time>
      </trkpt>
      <trkpt lat="44.99544" lon="4.51709">
        <ele>402</ele>
        <time>2015-10-26T14:25:03Z</time>
      </trkpt>
      <trkpt lat="44.99552" lon="4.5171">
        <ele>401</ele>
        <time>2015-10-26T14:25:08Z</time>
      </trkpt>
      <trkpt lat="44.99549" lon="4.51699">
        <ele>401</ele>
        <time>2015-10-26T14:25:22Z</time>
      </trkpt>
      <trkpt lat="44.99545" lon="4.51693">
        <ele>401</ele>
        <time>2015-10-26T14:25:25Z</time>
      </trkpt>
      <trkpt lat="44.99545" lon="4.51693">
        <ele>401</ele>
        <time>2015-10-26T14:25:25Z</time>
      </trkpt>
    </trkseg>
  </trk>
</gpx>